createdAt,value
2018-09-12T00:01:55.051Z,24.24
2018-09-12T00:04:21.000Z,24.22
2018-09-12T00:06:47.035Z,24.21
2018-09-12T00:09:12.998Z,24.18
2018-09-12T00:11:38.960Z,24.21
2018-09-12T00:14:04.916Z,24.21
2018-09-12T00:16:30.871Z,24.29
2018-09-12T00:18:56.814Z,24.25
2018-09-12T00:21:22.768Z,24.16
2018-09-12T00:23:48.749Z,24.18
2018-09-12T00:26:14.701Z,24.20
2018-09-12T00:28:40.696Z,24.22
2018-09-12T00:31:06.748Z,24.18
2018-09-12T00:33:32.728Z,24.17
2018-09-12T00:35:58.655Z,24.14
2018-09-12T00:38:24.620Z,24.19
2018-09-12T00:40:50.588Z,24.17
2018-09-12T00:43:16.540Z,24.16
2018-09-12T00:45:42.672Z,24.15
2018-09-12T00:48:08.622Z,24.18
2018-09-12T00:50:34.575Z,24.14
2018-09-12T00:53:00.840Z,24.15
2018-09-12T00:55:26.908Z,24.18
2018-09-12T00:57:52.847Z,24.08
2018-09-12T01:00:18.900Z,24.08
2018-09-12T01:02:44.992Z,24.12
2018-09-12T01:05:11.016Z,24.08
2018-09-12T01:07:36.966Z,24.08
2018-09-12T01:10:02.928Z,24.08
2018-09-12T01:12:28.901Z,24.11
2018-09-12T01:14:54.846Z,24.09
2018-09-12T01:17:20.974Z,24.08
2018-09-12T01:19:46.943Z,24.10
2018-09-12T01:22:12.888Z,24.14
2018-09-12T01:24:38.856Z,24.10
2018-09-12T01:27:04.804Z,24.08
2018-09-12T01:29:30.764Z,24.08
2018-09-12T01:31:56.723Z,24.08
2018-09-12T01:34:22.687Z,24.06
2018-09-12T01:36:48.643Z,24.07
2018-09-12T01:39:14.584Z,24.08
2018-09-12T01:41:40.828Z,24.02
2018-09-12T01:44:06.800Z,24.01
2018-09-12T01:46:32.743Z,24.04
2018-09-12T01:48:58.740Z,24.10
2018-09-12T01:51:24.779Z,24.11
2018-09-12T01:53:50.723Z,24.04
2018-09-12T01:56:16.697Z,24.02
2018-09-12T01:58:42.735Z,24.05
2018-09-12T02:01:08.691Z,24.04
2018-09-12T02:03:34.644Z,24.10
2018-09-12T02:06:00.990Z,24.03
2018-09-12T02:08:26.933Z,24.03
2018-09-12T02:10:52.900Z,24.04
2018-09-12T02:13:18.846Z,23.99
2018-09-12T02:15:44.798Z,24.00
2018-09-12T02:18:10.747Z,24.06
2018-09-12T02:20:36.691Z,24.06
2018-09-12T02:23:02.639Z,24.00
2018-09-12T02:25:28.582Z,23.99
2018-09-12T02:27:54.543Z,24.00
2018-09-12T02:30:20.602Z,24.03
2018-09-12T02:32:46.536Z,24.04
2018-09-12T02:35:12.514Z,23.97
2018-09-12T02:37:38.587Z,23.93
2018-09-12T02:40:04.553Z,24.04
2018-09-12T02:42:30.505Z,24.04
2018-09-12T02:44:56.511Z,23.95
2018-09-12T02:47:22.464Z,23.95
2018-09-12T02:49:48.414Z,23.96
2018-09-12T02:52:14.368Z,23.94
2018-09-12T02:54:40.319Z,23.90
2018-09-12T02:57:06.270Z,23.95
2018-09-12T02:59:32.247Z,23.95
2018-09-12T03:01:58.207Z,23.89
2018-09-12T03:04:24.163Z,23.96
2018-09-12T03:06:50.147Z,23.97
2018-09-12T03:09:16.105Z,23.98
2018-09-12T03:11:42.063Z,23.98
2018-09-12T03:14:08.008Z,23.98
2018-09-12T03:16:33.969Z,23.99
2018-09-12T03:18:59.927Z,24.03
2018-09-12T03:21:25.871Z,24.01
2018-09-12T03:23:51.824Z,23.96
2018-09-12T03:26:17.774Z,23.93
2018-09-12T03:28:43.735Z,23.98
2018-09-12T03:31:09.684Z,23.95
2018-09-12T03:33:35.639Z,24.00
2018-09-12T03:36:01.688Z,23.93
2018-09-12T03:38:27.636Z,23.91
2018-09-12T03:40:53.693Z,23.89
2018-09-12T03:43:19.636Z,23.92
2018-09-12T03:45:45.587Z,23.89
2018-09-12T03:48:11.565Z,23.93
2018-09-12T03:50:37.483Z,24.04
2018-09-12T03:53:03.457Z,23.95
2018-09-12T03:55:29.411Z,23.94
2018-09-12T03:57:55.356Z,23.99
2018-09-12T04:00:21.365Z,23.91
2018-09-12T04:02:47.542Z,23.92
2018-09-12T04:05:13.483Z,23.95
2018-09-12T04:07:39.427Z,23.95
2018-09-12T04:10:05.458Z,23.92
2018-09-12T04:12:31.424Z,23.96
2018-09-12T04:14:57.392Z,23.89
2018-09-12T04:17:23.346Z,23.89
2018-09-12T04:19:49.308Z,23.85
2018-09-12T04:22:15.245Z,23.91
2018-09-12T04:24:41.255Z,23.87
2018-09-12T04:27:07.236Z,23.85
2018-09-12T04:29:33.179Z,23.83
2018-09-12T04:31:59.187Z,23.87
2018-09-12T04:34:25.149Z,23.89
2018-09-12T04:36:51.112Z,23.87
2018-09-12T04:39:17.090Z,23.93
2018-09-12T04:41:43.057Z,23.90
2018-09-12T04:44:08.996Z,23.90
2018-09-12T04:46:35.028Z,23.92
2018-09-12T04:49:00.974Z,23.88
2018-09-12T04:51:26.928Z,23.89
2018-09-12T04:53:52.884Z,23.85
2018-09-12T04:56:18.840Z,23.86
2018-09-12T04:58:44.833Z,23.85
2018-09-12T05:01:10.780Z,23.88
2018-09-12T05:03:36.793Z,23.86
2018-09-12T05:06:02.732Z,23.86
2018-09-12T05:08:28.675Z,23.85
2018-09-12T05:10:54.727Z,23.78
2018-09-12T05:13:20.702Z,23.84
2018-09-12T05:15:46.638Z,23.89
2018-09-12T05:18:12.623Z,23.88
2018-09-12T05:20:38.589Z,23.87
2018-09-12T05:23:04.527Z,23.92
2018-09-12T05:25:30.476Z,23.91
2018-09-12T05:27:56.420Z,23.89
2018-09-12T05:30:22.395Z,23.88
2018-09-12T05:32:48.351Z,23.92
2018-09-12T05:35:14.298Z,23.88
2018-09-12T05:37:40.254Z,23.85
2018-09-12T05:40:06.214Z,23.90
2018-09-12T05:42:32.205Z,23.86
2018-09-12T05:44:58.140Z,23.85
2018-09-12T05:47:24.103Z,23.84
2018-09-12T05:49:50.072Z,23.85
2018-09-12T05:52:16.028Z,23.85
2018-09-12T05:54:41.980Z,23.86
2018-09-12T05:57:07.953Z,23.83
2018-09-12T05:59:33.899Z,23.88
2018-09-12T06:01:59.847Z,23.86
2018-09-12T06:04:25.792Z,23.87
2018-09-12T06:06:51.898Z,23.85
2018-09-12T06:09:17.830Z,23.86
2018-09-12T06:11:43.780Z,23.86
2018-09-12T06:14:09.800Z,23.88
2018-09-12T06:16:35.683Z,23.82
2018-09-12T06:19:01.631Z,23.86
2018-09-12T06:21:27.851Z,23.84
2018-09-12T06:23:53.809Z,23.86
2018-09-12T06:26:19.765Z,23.84
2018-09-12T06:28:45.789Z,23.79
2018-09-12T06:31:11.744Z,23.81
2018-09-12T06:33:37.719Z,23.84
2018-09-12T06:36:03.715Z,23.79
2018-09-12T06:38:29.755Z,23.83
2018-09-12T06:40:55.637Z,23.86
2018-09-12T06:43:21.577Z,23.81
2018-09-12T06:45:47.559Z,23.79
2018-09-12T06:48:13.547Z,23.89
2018-09-12T06:50:39.545Z,23.84
2018-09-12T06:53:05.490Z,23.83
2018-09-12T06:55:31.432Z,23.84
2018-09-12T06:57:57.379Z,23.89
2018-09-12T07:00:23.332Z,23.90
2018-09-12T07:02:49.284Z,23.90
2018-09-12T07:05:15.301Z,23.89
2018-09-12T07:07:41.442Z,24.06
2018-09-12T07:10:07.336Z,23.88
2018-09-12T07:12:33.299Z,23.89
2018-09-12T07:14:59.292Z,23.90
2018-09-12T07:17:25.317Z,23.90
2018-09-12T07:19:51.357Z,23.89
2018-09-12T07:22:17.463Z,23.85
2018-09-12T07:24:43.517Z,23.85
2018-09-12T07:27:09.476Z,23.90
2018-09-12T07:29:35.440Z,23.88
2018-09-12T07:32:01.509Z,23.88
2018-09-12T07:34:27.452Z,23.92
2018-09-12T07:36:53.452Z,23.90
2018-09-12T07:39:19.608Z,23.89
2018-09-12T07:41:45.577Z,23.95
2018-09-12T07:44:11.516Z,24.03
2018-09-12T07:46:37.464Z,24.12
2018-09-12T07:49:03.496Z,24.04
2018-09-12T07:51:29.427Z,24.07
2018-09-12T07:53:55.431Z,24.10
2018-09-12T07:56:21.514Z,24.05
2018-09-12T07:58:47.426Z,24.06
2018-09-12T08:01:13.371Z,24.13
2018-09-12T08:03:39.338Z,24.06
2018-09-12T08:06:05.283Z,24.12
2018-09-12T08:08:31.238Z,24.14
2018-09-12T08:10:57.203Z,24.14
2018-09-12T08:13:23.148Z,24.13
2018-09-12T08:15:49.135Z,24.00
2018-09-12T08:18:15.087Z,24.04
2018-09-12T08:20:41.028Z,23.99
2018-09-12T08:23:07.094Z,23.96
2018-09-12T08:25:33.284Z,24.01
2018-09-12T08:27:59.232Z,24.04
2018-09-12T08:30:25.184Z,24.08
2018-09-12T08:32:51.285Z,24.05
2018-09-12T08:35:17.295Z,24.05
2018-09-12T08:37:43.237Z,24.06
2018-09-12T08:40:09.185Z,24.07
2018-09-12T08:42:35.269Z,24.04
2018-09-12T08:45:01.130Z,24.06
2018-09-12T08:47:27.079Z,24.10
2018-09-12T08:49:53.062Z,24.19
2018-09-12T08:52:19.021Z,24.17
2018-09-12T08:54:44.974Z,24.21
2018-09-12T08:57:10.946Z,24.26
2018-09-12T08:59:36.896Z,24.20
2018-09-12T09:02:02.876Z,24.20
2018-09-12T09:04:28.820Z,24.25
2018-09-12T09:06:54.771Z,24.27
2018-09-12T09:09:20.756Z,24.24
2018-09-12T09:11:46.705Z,24.24
2018-09-12T09:14:12.679Z,24.29
2018-09-12T09:16:38.625Z,24.20
2018-09-12T09:19:04.639Z,24.26
2018-09-12T09:21:30.649Z,24.25
2018-09-12T09:23:56.687Z,24.29
2018-09-12T09:26:22.708Z,24.37
2018-09-12T09:28:48.657Z,24.37
2018-09-12T09:31:14.618Z,24.29
2018-09-12T09:33:40.727Z,24.43
2018-09-12T09:36:06.691Z,24.30
2018-09-12T09:38:32.663Z,24.35
2018-09-12T09:40:58.649Z,24.36
2018-09-12T09:43:24.642Z,24.37
2018-09-12T09:45:50.604Z,24.36
2018-09-12T09:48:16.598Z,24.32
2018-09-12T09:50:42.536Z,24.44
2018-09-12T09:53:08.492Z,24.37
2018-09-12T09:55:34.450Z,24.34
2018-09-12T09:58:00.387Z,24.36
2018-09-12T10:00:26.451Z,24.32
2018-09-12T10:02:52.290Z,24.28
2018-09-12T10:05:18.244Z,23.92
2018-09-12T10:07:52.573Z,23.70
2018-09-12T10:10:18.539Z,23.64
2018-09-12T10:12:44.495Z,23.63
2018-09-12T10:15:10.457Z,23.65
2018-09-12T10:17:36.411Z,23.64
2018-09-12T10:20:02.360Z,23.67
2018-09-12T10:22:28.351Z,23.66
2018-09-12T10:24:54.368Z,23.65
2018-09-12T10:27:20.407Z,23.66
2018-09-12T10:29:46.355Z,23.68
2018-09-12T10:32:12.326Z,23.67
2018-09-12T10:34:38.290Z,23.69
2018-09-12T10:37:04.248Z,23.70
2018-09-12T10:39:30.205Z,23.72
2018-09-12T10:41:56.168Z,23.72
2018-09-12T10:44:22.121Z,23.70
2018-09-12T10:46:48.119Z,23.70
2018-09-12T10:49:14.108Z,23.70
2018-09-12T10:51:40.075Z,23.71
2018-09-12T10:54:06.039Z,23.72
2018-09-12T10:56:31.983Z,23.71
2018-09-12T10:58:58.024Z,23.71
2018-09-12T11:01:23.965Z,23.72
2018-09-12T11:03:50.020Z,23.72
2018-09-12T11:06:16.113Z,23.72
2018-09-12T11:08:42.064Z,23.68
2018-09-12T11:11:08.004Z,23.70
2018-09-12T11:13:33.965Z,23.69
2018-09-12T11:15:59.915Z,23.69
2018-09-12T11:18:25.900Z,23.72
2018-09-12T11:20:52.040Z,23.71
2018-09-12T11:23:18.096Z,23.74
2018-09-12T11:25:44.201Z,23.72
2018-09-12T11:28:10.205Z,23.73
2018-09-12T11:30:36.254Z,23.74
2018-09-12T11:33:02.188Z,23.72
2018-09-12T11:35:28.136Z,23.73
2018-09-12T11:37:54.165Z,23.71
2018-09-12T11:40:20.135Z,23.73
2018-09-12T11:42:46.122Z,23.74
2018-09-12T11:45:12.105Z,23.73
2018-09-12T11:47:38.149Z,23.75
2018-09-12T11:50:04.165Z,23.74
2018-09-12T11:52:30.197Z,23.75
2018-09-12T11:54:56.161Z,23.75
2018-09-12T11:57:22.111Z,23.75
2018-09-12T11:59:48.090Z,23.77
2018-09-12T12:02:14.370Z,23.78
2018-09-12T12:04:40.316Z,23.76
2018-09-12T12:07:06.260Z,23.77
2018-09-12T12:09:32.255Z,23.77
2018-09-12T12:11:58.261Z,23.77
2018-09-12T12:14:24.219Z,23.79
2018-09-12T12:16:50.172Z,23.79
2018-09-12T12:19:16.278Z,23.78
2018-09-12T12:21:42.326Z,23.79
2018-09-12T12:24:08.271Z,23.78
2018-09-12T12:26:34.240Z,23.77
2018-09-12T12:29:00.227Z,23.78
2018-09-12T12:31:26.192Z,23.79
2018-09-12T12:33:52.176Z,23.79
2018-09-12T12:36:18.122Z,23.79
2018-09-12T12:38:44.096Z,23.81
2018-09-12T12:41:10.082Z,23.84
2018-09-12T12:43:36.084Z,23.81
2018-09-12T12:46:02.104Z,23.80
2018-09-12T12:48:28.152Z,23.81
2018-09-12T12:50:54.463Z,23.80
2018-09-12T12:53:20.536Z,23.80
2018-09-12T12:55:46.495Z,23.80
2018-09-12T12:58:12.445Z,23.81
2018-09-12T13:00:38.392Z,23.81
2018-09-12T13:03:04.349Z,23.83
2018-09-12T13:05:30.327Z,23.81
2018-09-12T13:07:56.504Z,23.80
2018-09-12T13:10:22.465Z,23.80
2018-09-12T13:12:48.399Z,23.81
2018-09-12T13:15:14.359Z,23.82
2018-09-12T13:17:40.389Z,23.85
2018-09-12T13:20:06.415Z,23.85
2018-09-12T13:22:32.353Z,23.84
2018-09-12T13:24:58.342Z,23.85
2018-09-12T13:27:24.347Z,23.84
2018-09-12T13:29:50.248Z,23.83
2018-09-12T13:32:16.208Z,23.84
2018-09-12T13:34:42.199Z,23.84
2018-09-12T13:37:08.160Z,23.86
2018-09-12T13:39:34.683Z,23.85
2018-09-12T13:42:01.215Z,23.85
2018-09-12T13:44:27.191Z,23.84
2018-09-12T13:46:53.142Z,23.84
2018-09-12T13:49:19.404Z,23.86
2018-09-12T13:51:45.643Z,23.85
2018-09-12T13:54:11.611Z,23.84
2018-09-12T13:56:37.641Z,23.86
2018-09-12T13:59:03.737Z,23.87
2018-09-12T14:01:29.740Z,23.88
2018-09-12T14:03:55.687Z,23.89
2018-09-12T14:06:21.647Z,23.88
2018-09-12T14:08:47.618Z,23.88
2018-09-12T14:11:13.550Z,23.87
2018-09-12T14:13:39.580Z,23.88
2018-09-12T14:16:05.617Z,23.87
2018-09-12T14:18:31.578Z,23.85
2018-09-12T14:20:57.545Z,23.85
2018-09-12T14:23:23.568Z,23.87
2018-09-12T14:25:49.523Z,23.86
2018-09-12T14:28:15.544Z,23.85
2018-09-12T14:30:41.581Z,23.85
2018-09-12T14:33:07.652Z,23.85
2018-09-12T14:35:33.600Z,23.84
2018-09-12T14:37:59.653Z,23.85
2018-09-12T14:40:25.620Z,23.84
2018-09-12T14:42:51.581Z,23.86
2018-09-12T14:45:17.645Z,23.87
2018-09-12T14:47:43.692Z,23.85
2018-09-12T14:50:09.755Z,23.84
2018-09-12T14:52:35.705Z,23.84
2018-09-12T14:55:01.703Z,23.85
2018-09-12T14:57:27.798Z,23.83
2018-09-12T14:59:54.743Z,23.82
2018-09-12T15:02:20.769Z,23.83
2018-09-12T15:04:46.755Z,23.81
2018-09-12T15:07:12.686Z,23.81
2018-09-12T15:09:38.647Z,23.80
2018-09-12T15:12:04.628Z,23.79
2018-09-12T15:14:30.600Z,23.80
2018-09-12T15:16:56.572Z,23.79
2018-09-12T15:19:22.506Z,23.80
2018-09-12T15:21:48.543Z,23.79
2018-09-12T15:24:14.491Z,23.75
2018-09-12T15:26:40.544Z,23.78
2018-09-12T15:29:06.567Z,23.80
2018-09-12T15:31:32.520Z,23.78
2018-09-12T15:33:58.475Z,23.77
2018-09-12T15:36:24.441Z,23.78
2018-09-12T15:38:50.421Z,23.79
2018-09-12T15:41:16.459Z,23.80
2018-09-12T15:43:42.405Z,23.80
2018-09-12T15:46:08.372Z,23.81
2018-09-12T15:48:34.479Z,23.82
2018-09-12T15:51:00.427Z,23.82
2018-09-12T15:53:26.378Z,23.83
2018-09-12T15:55:52.330Z,23.84
2018-09-12T15:58:18.333Z,23.80
2018-09-12T16:00:44.250Z,23.79
2018-09-12T16:03:10.260Z,23.81
2018-09-12T16:05:36.312Z,23.81
2018-09-12T16:08:02.249Z,23.80
2018-09-12T16:10:28.233Z,23.83
2018-09-12T16:12:54.164Z,23.82
2018-09-12T16:15:20.142Z,23.81
2018-09-12T16:17:46.140Z,23.81
2018-09-12T16:20:12.096Z,23.79
2018-09-12T16:22:38.090Z,23.79
2018-09-12T16:25:04.146Z,23.79
2018-09-12T16:27:30.276Z,23.79
2018-09-12T16:29:56.228Z,23.80
2018-09-12T16:32:22.202Z,23.78
2018-09-12T16:34:48.178Z,23.79
2018-09-12T16:37:14.159Z,23.79
2018-09-12T16:39:40.191Z,23.76
2018-09-12T16:42:06.220Z,23.75
2018-09-12T16:44:32.307Z,23.75
2018-09-12T16:46:58.251Z,23.74
2018-09-12T16:49:24.303Z,23.78
2018-09-12T16:51:50.284Z,23.78
2018-09-12T16:54:16.248Z,23.79
2018-09-12T16:56:42.214Z,23.78
2018-09-12T16:59:08.220Z,23.75
2018-09-12T17:01:34.163Z,23.74
2018-09-12T17:04:00.117Z,23.74
2018-09-12T17:06:26.143Z,23.74
2018-09-12T17:08:52.055Z,23.71
2018-09-12T17:11:18.033Z,23.71
2018-09-12T17:13:44.024Z,23.72
2018-09-12T17:16:10.013Z,23.70
2018-09-12T17:18:35.980Z,23.70
2018-09-12T17:21:01.971Z,23.69
2018-09-12T17:23:27.916Z,23.71
2018-09-12T17:25:53.872Z,23.71
2018-09-12T17:28:19.839Z,23.70
2018-09-12T17:30:45.788Z,23.74
2018-09-12T17:33:11.804Z,23.74
2018-09-12T17:35:38.168Z,23.70
2018-09-12T17:38:04.161Z,23.69
2018-09-12T17:40:30.130Z,23.69
2018-09-12T17:42:56.071Z,23.69
2018-09-12T17:45:22.054Z,23.67
2018-09-12T17:47:48.004Z,23.67
2018-09-12T17:50:13.967Z,23.67
2018-09-12T17:52:39.929Z,23.67
2018-09-12T17:55:06.133Z,23.65
2018-09-12T17:57:32.124Z,23.64
2018-09-12T17:59:58.102Z,23.64
2018-09-12T18:02:24.061Z,23.64
2018-09-12T18:04:50.138Z,23.64
2018-09-12T18:07:16.113Z,23.64
2018-09-12T18:09:42.091Z,23.64
2018-09-12T18:12:08.073Z,23.63
2018-09-12T18:14:34.087Z,23.62
2018-09-12T18:17:00.131Z,23.63
2018-09-12T18:19:26.084Z,23.63
2018-09-12T18:21:52.086Z,23.61
2018-09-12T18:24:18.128Z,23.61
2018-09-12T18:26:44.075Z,23.58
2018-09-12T18:29:10.128Z,23.57
2018-09-12T18:31:36.121Z,23.57
2018-09-12T18:34:02.076Z,23.56
2018-09-12T18:36:28.327Z,23.56
2018-09-12T18:38:54.369Z,23.55
2018-09-12T18:41:20.491Z,23.54
2018-09-12T18:43:46.562Z,23.55
2018-09-12T18:46:12.595Z,23.53
2018-09-12T18:48:38.855Z,23.55
2018-09-12T18:51:04.795Z,23.54
2018-09-12T18:53:30.894Z,23.54
2018-09-12T18:55:56.859Z,23.53
2018-09-12T18:58:22.845Z,23.53
2018-09-12T19:00:48.867Z,23.52
2018-09-12T19:03:14.827Z,23.49
2018-09-12T19:05:40.991Z,23.49
2018-09-12T19:08:06.945Z,23.48
2018-09-12T19:10:32.913Z,23.46
2018-09-12T19:12:59.034Z,23.47
2018-09-12T19:15:25.037Z,23.43
2018-09-12T19:17:51.068Z,23.43
2018-09-12T19:20:17.037Z,23.45
2018-09-12T19:22:43.124Z,23.42
2018-09-12T19:25:09.167Z,23.43
2018-09-12T19:27:35.119Z,23.44
2018-09-12T19:30:01.111Z,23.43
2018-09-12T19:32:27.087Z,23.43
2018-09-12T19:34:53.047Z,23.44
2018-09-12T19:37:19.008Z,23.44
2018-09-12T19:39:45.015Z,23.45
2018-09-12T19:42:10.980Z,23.43
2018-09-12T19:44:37.104Z,23.42
2018-09-12T19:47:03.086Z,23.41
2018-09-12T19:49:29.257Z,23.42
2018-09-12T19:51:55.276Z,23.41
2018-09-12T19:54:21.318Z,23.39
2018-09-12T19:56:47.321Z,23.39
2018-09-12T19:59:13.349Z,23.38
2018-09-12T20:01:39.379Z,23.39
2018-09-12T20:04:05.348Z,23.39
2018-09-12T20:06:31.441Z,23.39
2018-09-12T20:08:57.400Z,23.39
2018-09-12T20:11:23.392Z,23.39
2018-09-12T20:13:49.426Z,23.40
2018-09-12T20:16:15.664Z,23.40
2018-09-12T20:18:41.616Z,23.39
2018-09-12T20:21:07.591Z,23.39
2018-09-12T20:23:33.574Z,23.39
2018-09-12T20:26:00.201Z,23.42
2018-09-12T20:28:26.296Z,23.40
2018-09-12T20:30:52.248Z,23.38
2018-09-12T20:33:18.274Z,23.39
2018-09-12T20:35:44.271Z,23.38
2018-09-12T20:38:10.177Z,23.37
2018-09-12T20:40:36.130Z,23.37
2018-09-12T20:43:02.088Z,23.36
2018-09-12T20:45:28.159Z,23.36
2018-09-12T20:47:54.116Z,23.37
2018-09-12T20:50:20.160Z,23.40
2018-09-12T20:52:46.312Z,23.41
2018-09-12T20:55:12.299Z,23.37
2018-09-12T21:00:09.596Z,23.41
2018-09-12T21:02:35.660Z,23.41
2018-09-12T21:05:01.541Z,23.39
2018-09-12T21:07:27.539Z,23.40
2018-09-12T21:09:53.487Z,23.40
2018-09-12T21:12:19.460Z,23.39
2018-09-12T21:14:45.427Z,23.38
2018-09-12T21:17:11.372Z,23.36
2018-09-12T21:19:37.356Z,23.33
2018-09-12T21:22:03.348Z,23.35
2018-09-12T21:24:29.333Z,23.35
2018-09-12T21:26:55.280Z,23.35
2018-09-12T21:29:21.320Z,23.35
2018-09-12T21:31:47.278Z,23.33
2018-09-12T21:34:13.233Z,23.32
2018-09-12T21:36:39.196Z,23.29
2018-09-12T21:39:05.140Z,23.31
2018-09-12T21:41:31.097Z,23.31
2018-09-12T21:43:57.047Z,23.31
2018-09-12T21:46:23.021Z,23.31
2018-09-12T21:48:49.009Z,23.30
2018-09-12T21:51:14.974Z,23.31
2018-09-12T21:53:40.931Z,23.27
2018-09-12T21:56:06.894Z,23.27
2018-09-12T21:58:32.836Z,23.27
2018-09-12T22:00:58.784Z,23.26
2018-09-12T22:03:24.960Z,23.26
2018-09-12T22:05:50.905Z,23.25
2018-09-12T22:08:16.852Z,23.25
2018-09-12T22:10:43.324Z,23.23
2018-09-12T22:13:09.285Z,23.22
2018-09-12T22:15:35.236Z,23.22
2018-09-12T22:18:01.189Z,23.23
2018-09-12T22:20:27.139Z,23.22
2018-09-12T22:22:53.100Z,23.21
2018-09-12T22:25:19.035Z,23.20
2018-09-12T22:27:44.985Z,23.24
2018-09-12T22:30:10.943Z,23.25
2018-09-12T22:32:36.890Z,23.25
2018-09-12T22:35:02.855Z,23.27
2018-09-12T22:37:28.830Z,23.27
2018-09-12T22:39:54.794Z,23.26
2018-09-12T22:42:20.808Z,23.26
2018-09-12T22:44:46.779Z,23.27
2018-09-12T22:47:12.735Z,23.27
2018-09-12T22:49:38.688Z,23.28
2018-09-12T22:52:04.652Z,23.26
2018-09-12T22:54:30.710Z,23.26
2018-09-12T22:56:56.659Z,23.25
2018-09-12T22:59:22.604Z,23.25
2018-09-12T23:01:48.571Z,23.23
2018-09-12T23:04:14.523Z,23.24
2018-09-12T23:06:40.482Z,23.24
2018-09-12T23:09:06.434Z,23.24
2018-09-12T23:11:32.405Z,23.24
2018-09-12T23:13:58.445Z,23.26
2018-09-12T23:16:24.387Z,23.24
2018-09-12T23:18:50.365Z,23.21
2018-09-12T23:21:16.347Z,23.21
2018-09-12T23:23:42.299Z,23.24
2018-09-12T23:26:08.249Z,23.21
2018-09-12T23:28:34.255Z,23.25
2018-09-12T23:31:00.203Z,23.23
2018-09-12T23:33:26.152Z,23.22
2018-09-12T23:35:52.240Z,23.22
2018-09-12T23:38:18.191Z,23.22
2018-09-12T23:40:44.138Z,23.21
2018-09-12T23:43:10.090Z,23.20
2018-09-12T23:45:36.072Z,23.20
2018-09-12T23:48:01.987Z,23.20
2018-09-12T23:50:28.075Z,23.21
2018-09-12T23:52:54.028Z,23.18
2018-09-12T23:55:19.990Z,23.19
2018-09-12T23:57:45.927Z,23.21
